FOLSOM LAKE (FOL)

Elevation: 466' · AMERICAN R basin · Operator: US Bureau of Reclamation

Provisional data, subject to change.
Query executed Tuesday at 4:16:34   clock

Select a sensor type for a plot of data.
Note: Reservoir Flows are daily averages.

Earlier

Date RES ELE    STORAGE    RES CHG    TOC STO    ABV TOC    OUTFLOW    INFLOW    EVAP    FNF    RIV REL    PPT INC    SPILL    DC PUMP    DIS PWR   
 FEET   AF   AF   AF   AF   CFS   CFS   CFS   CFS   CFS   INCHES   CFS   CFS   CFS  
06/23/2014 414.99 487890 -2905 977000 -489110 2315 918 68 328 0 0.00 0 189 2126
06/24/2014 414.67 485401 -2489 977000 -491599 1984 797 68 274 e 0 0.00 0 180 1804
06/25/2014 414.25 482133 -3268 977000 -494867 2280 710 78 292 e 0 0.00 0 182 2098
06/26/2014 413.93 479649 -2484 977000 -497351 2030 846 68 292 e 0 0.00 0 177 1853
06/27/2014 413.66 477568 -2081 977000 -- 2141 1152 60 292 e 0 0.00 0 174 1967
06/28/2014 413.40 475565 -2003 977000 -- 2013 1063 60 327 e 0 0.00 0 177 1836
06/29/2014 413.12 473408 -2157 977000 -503592 1851 823 59 327 e 0 0.00 0 179 1672
06/30/2014 412.77 470728 -2680 977000 -506272 2399 1125 77 251 0 0.00 0 183 2216
07/01/2014 412.41 467981 -2747 977000 -509019 2163 865 87 313 e 0 0.00 0 187 1976
07/02/2014 412.03 465081 -2900 977000 -511919 1997 619 84 313 e 0 0.00 0 188 1809
07/03/2014 411.66 462283 -2798 977000 -- 2177 837 71 313 e 0 0.00 0 180 1997
07/04/2014 411.34 459865 -2418 977000 -- 2131 991 79 251 0 0.00 0 181 1950
07/05/2014 411.04 457598 -2267 977000 -- 2218 1153 78 215 e 0 0.00 0 184 2034
07/06/2014 410.75 455426 -2172 977000 -521574 2156 1137 76 214 e 0 0.00 0 179 1977
07/07/2014 410.44 453107 -2319 977000 -523893 2153 1047 63 256 e 0 0.00 0 185 1968
07/08/2014 410.07 450339 -2768 977000 -526661 2057 731 70 255 e 0 0.00 0 185 1872
07/09/2014 409.73 447816 -2523 977000 -529184 2218 1016 70 222 e 0 0.00 0 187 2031
07/10/2014 409.46 445817 -1999 977000 -531183 2213 1277 72 286 e 0 0.00 0 182 2031
07/11/2014 409.13 443374 -2443 977000 -- 2050 887 69 222 e 0 0.00 0 181 1869
07/12/2014 408.83 441166 -2208 977000 -- 2085 1041 69 273 0 0.00 0 181 1904
07/13/2014 408.50 438750 -2416 977000 -538250 2182 1028 64 -- 0 0.00 0 184 1998
07/14/2014 408.22 436700 -2050 977000 -540300 2260 1305 79 -- 0 0.00 0 187 2073
07/15/2014 407.92 434510 -2190 977000 -542490 2097 1059 66 -- 0 0.00 0 185 1912
07/16/2014 407.53 431685 -2825 977000 -- 2065 712 71 -- 0 0.00 0 188 1877
07/17/2014 407.15 428933 -2752 977000 -548067 2170 849 66 -- 0 0.00 0 174 1996
07/18/2014 406.88 426988 -1945 977000 -- 2135 1210 56 -- 0 0.00 0 167 1968
07/19/2014 406.64 425269 -1719 977000 -- 2057 1248 58 -- 0 0.00 0 178 1879
07/20/2014 406.41 423621 -1648 977000 -553379 2045 1269 55 -- 0 0.00 0 181 1864
07/21/2014 -- -- -- -- -- -- -- -- -- -- -- -- -- --
07/22/2014 -- -- -- -- -- -- -- -- -- -- -- -- -- --

Later | Latest

Warning! This data is preliminary and subject to revision.

Download Data Now Download Data Now | Show FOL Map | Plot FOL Data | 1 Month FOL Data | Real-Time FOL Data | FOL Info